Time;durP1;ratioP1;P1;durP2;ratioP2;P2;SDS_P1;SDS_P2;PMS_P1;PMS_P2;Temp;Humidity;BMP_temperature;BMP_pressure;BME280_temperature;BME280_humidity;BME280_pressure;Samples;Min_cycle;Max_cycle;Signal;HPM_P1;HPM_P2
2022/01/06 00:02:09;;;;;;;8.60;3.00;;;;;3.10;95709.00;;;;8325238;28;20311;-78
2022/01/06 00:06:13;;;;;;;6.90;2.30;;;;;3.20;95707.00;;;;8347395;28;21012;-78
2022/01/06 00:10:16;;;;;;;6.90;2.37;;;;;3.20;95718.00;;;;8337714;28;20586;-78
2022/01/06 00:14:34;;;;;;;5.53;3.03;;;;;3.30;95718.00;;;;8338582;28;20258;-78
2022/01/06 00:23:24;;;;;;;4.77;2.57;;;;;3.40;95709.00;;;;8336942;28;20327;-78
2022/01/06 00:27:27;;;;;;;7.47;2.40;;;;;3.50;95721.00;;;;8337081;28;20654;-77
2022/01/06 00:31:31;;;;;;;4.10;2.47;;;;;3.50;95706.00;;;;8336644;28;20266;-78
2022/01/06 00:35:36;;;;;;;7.17;2.10;;;;;3.50;95708.00;;;;8336313;28;20661;-78
2022/01/06 00:39:40;;;;;;;10.13;2.90;;;;;3.50;95714.00;;;;8338155;28;20715;-78
2022/01/06 00:43:43;;;;;;;5.73;2.63;;;;;3.50;95708.00;;;;8338774;28;20232;-75
2022/01/06 00:47:46;;;;;;;6.80;2.43;;;;;3.50;95716.00;;;;8336385;28;20327;-76
2022/01/06 00:51:51;;;;;;;7.50;2.73;;;;;3.60;95714.00;;;;8332273;28;20268;-76
2022/01/06 00:55:54;;;;;;;6.97;2.60;;;;;3.60;95718.00;;;;8339517;28;20331;-76
2022/01/06 00:59:57;;;;;;;10.30;2.93;;;;;3.50;95724.00;;;;8333499;28;20255;-75
2022/01/06 01:04:00;;;;;;;4.93;2.50;;;;;3.50;95730.00;;;;8336290;28;20240;-76
2022/01/06 01:08:05;;;;;;;8.53;2.90;;;;;3.50;95729.00;;;;8334235;28;20259;-75
2022/01/06 01:12:09;;;;;;;7.93;2.80;;;;;3.40;95727.00;;;;8333720;28;20282;-75
2022/01/06 01:16:22;;;;;;;9.90;2.93;;;;;3.40;95732.00;;;;8328383;28;20824;-75
2022/01/06 01:20:25;;;;;;;7.53;3.20;;;;;3.40;95727.00;;;;8335641;28;20237;-75
2022/01/06 01:24:30;;;;;;;7.70;2.53;;;;;3.40;95735.00;;;;8337071;28;20255;-79
2022/01/06 01:28:42;;;;;;;7.87;2.83;;;;;3.40;95740.00;;;;8326154;28;20259;-77
2022/01/06 01:32:50;;;;;;;8.60;3.40;;;;;3.40;95743.00;;;;8332977;28;20240;-78
2022/01/06 01:36:56;;;;;;;4.83;2.60;;;;;3.40;95740.00;;;;8334273;28;20297;-77
2022/01/06 01:41:00;;;;;;;6.93;2.50;;;;;3.40;95749.00;;;;8340075;28;20618;-77
2022/01/06 01:45:06;;;;;;;11.13;3.17;;;;;3.40;95749.00;;;;8343625;28;20223;-76
2022/01/06 01:49:16;;;;;;;7.07;2.83;;;;;3.30;95751.00;;;;8340240;28;20224;-78
2022/01/06 01:53:20;;;;;;;6.43;2.83;;;;;3.20;95755.00;;;;8326366;28;20287;-78
2022/01/06 01:57:24;;;;;;;6.50;3.00;;;;;3.20;95765.00;;;;8334891;28;20268;-78
2022/01/06 02:01:28;;;;;;;9.13;3.00;;;;;3.20;95768.00;;;;8329789;28;20304;-77
2022/01/06 02:05:32;;;;;;;15.77;3.37;;;;;3.20;95772.00;;;;8338896;28;20802;-76
2022/01/06 02:09:35;;;;;;;13.50;3.20;;;;;3.20;95777.00;;;;8343348;28;20602;-77
2022/01/06 02:13:46;;;;;;;7.30;3.30;;;;;3.20;95775.00;;;;8335654;28;20232;-76
2022/01/06 02:17:55;;;;;;;8.30;2.93;;;;;3.20;95786.00;;;;8336449;28;20632;-76
2022/01/06 02:21:59;;;;;;;7.53;2.93;;;;;3.30;95785.00;;;;8332003;28;20232;-76
2022/01/06 02:26:02;;;;;;;9.00;3.17;;;;;3.20;95780.00;;;;8335340;28;20240;-76
2022/01/06 02:30:07;;;;;;;12.90;3.77;;;;;3.30;95789.00;;;;8333230;28;20346;-75
2022/01/06 02:34:10;;;;;;;8.80;3.57;;;;;3.30;95773.00;;;;8334503;28;20310;-75
2022/01/06 02:38:15;;;;;;;10.30;3.77;;;;;3.30;95781.00;;;;8331414;28;20248;-75
2022/01/06 02:42:18;;;;;;;7.53;3.80;;;;;3.40;95782.00;;;;8335289;28;20255;-75
2022/01/06 02:46:21;;;;;;;12.03;3.60;;;;;3.40;95782.00;;;;8335848;28;20260;-75
2022/01/06 02:50:26;;;;;;;9.07;3.60;;;;;3.40;95777.00;;;;8334679;28;20251;-76
2022/01/06 02:54:30;;;;;;;10.83;4.10;;;;;3.30;95779.00;;;;8341298;28;20224;-80
2022/01/06 02:58:34;;;;;;;7.20;3.10;;;;;3.30;95786.00;;;;8331715;28;20229;-80
2022/01/06 03:02:38;;;;;;;9.97;3.40;;;;;3.30;95796.00;;;;8400128;22;20895;-79
2022/01/06 03:06:42;;;;;;;10.17;4.07;;;;;3.30;95797.00;;;;8311877;28;20319;-79
2022/01/06 03:10:46;;;;;;;10.83;4.33;;;;;3.20;95812.00;;;;8323234;28;21025;-77
2022/01/06 03:14:49;;;;;;;8.10;3.40;;;;;3.20;95805.00;;;;8316471;28;20316;-80
2022/01/06 03:18:53;;;;;;;8.43;4.00;;;;;3.20;95800.00;;;;8321501;28;20311;-77
2022/01/06 03:22:57;;;;;;;11.47;4.20;;;;;3.20;95792.00;;;;8318742;28;20828;-77
2022/01/06 03:27:02;;;;;;;6.63;4.17;;;;;3.30;95806.00;;;;8321591;28;20318;-77
2022/01/06 03:31:05;;;;;;;12.90;4.10;;;;;3.30;95821.00;;;;8315834;28;20255;-77
2022/01/06 03:35:10;;;;;;;11.87;4.07;;;;;3.40;95819.00;;;;8321509;28;20236;-77
2022/01/06 03:39:13;;;;;;;8.53;3.70;;;;;3.40;95811.00;;;;8324874;28;20666;-76
2022/01/06 03:43:17;;;;;;;7.00;3.90;;;;;3.40;95812.00;;;;8319068;28;20306;-76
2022/01/06 03:47:20;;;;;;;8.07;4.13;;;;;3.40;95812.00;;;;8317664;28;20239;-79
2022/01/06 03:51:24;;;;;;;12.73;4.87;;;;;3.30;95819.00;;;;8324405;28;20316;-79
2022/01/06 03:55:27;;;;;;;10.00;4.10;;;;;3.30;95825.00;;;;8319120;28;20634;-80
2022/01/06 03:59:32;;;;;;;9.60;4.40;;;;;3.20;95823.00;;;;8325060;28;20322;-78
2022/01/06 04:03:35;;;;;;;8.30;4.50;;;;;3.20;95826.00;;;;8317941;28;20291;-76
2022/01/06 04:07:39;;;;;;;10.47;4.03;;;;;3.10;95824.00;;;;8326936;28;20629;-77
2022/01/06 04:11:43;;;;;;;11.47;4.43;;;;;3.20;95831.00;;;;8315760;28;20816;-78
2022/01/06 04:15:48;;;;;;;8.57;4.73;;;;;3.00;95835.00;;;;8318317;28;21119;-79
2022/01/06 04:19:51;;;;;;;8.60;4.43;;;;;3.00;95836.00;;;;8328675;28;20318;-81
2022/01/06 04:23:54;;;;;;;12.07;4.80;;;;;3.00;95832.00;;;;8326065;28;20692;-80
2022/01/06 04:27:59;;;;;;;8.93;4.50;;;;;3.10;95837.00;;;;8320076;28;20649;-76
2022/01/06 04:32:05;;;;;;;16.57;5.97;;;;;3.10;95844.00;;;;8321305;28;20827;-78
2022/01/06 04:36:09;;;;;;;6.10;2.90;;;;;3.20;95847.00;;;;8322823;28;20694;-78
2022/01/06 04:40:13;;;;;;;10.03;4.80;;;;;3.20;95851.00;;;;8323360;28;20726;-77
2022/01/06 04:44:16;;;;;;;11.20;4.00;;;;;3.20;95856.00;;;;8318600;28;20309;-76
2022/01/06 04:48:21;;;;;;;12.73;4.97;;;;;3.20;95860.00;;;;8320210;28;20393;-75
2022/01/06 04:52:24;;;;;;;11.20;4.63;;;;;3.20;95872.00;;;;8333740;28;20311;-76
2022/01/06 04:56:28;;;;;;;13.33;4.70;;;;;3.00;95870.00;;;;8318266;28;20320;-75
2022/01/06 05:00:31;;;;;;;14.63;5.00;;;;;3.00;95875.00;;;;8321440;28;20237;-76
2022/01/06 05:04:36;;;;;;;13.67;5.00;;;;;3.00;95873.00;;;;8321222;28;20807;-76
2022/01/06 05:08:40;;;;;;;12.77;4.67;;;;;2.90;95886.00;;;;8314978;28;20231;-75
2022/01/06 05:12:44;;;;;;;10.13;4.53;;;;;2.80;95886.00;;;;8314102;28;20580;-75
2022/01/06 05:16:48;;;;;;;11.57;5.00;;;;;2.80;95885.00;;;;8313821;28;20235;-75
2022/01/06 05:20:52;;;;;;;14.63;5.73;;;;;2.80;95886.00;;;;8321202;28;20242;-75
2022/01/06 05:24:55;;;;;;;11.53;5.00;;;;;2.90;95898.00;;;;8323563;28;20264;-75
2022/01/06 05:28:59;;;;;;;13.03;4.80;;;;;3.00;95905.00;;;;8330314;28;20263;-76
2022/01/06 05:33:02;;;;;;;8.20;4.57;;;;;3.00;95906.00;;;;8328478;28;20312;-75
2022/01/06 05:37:07;;;;;;;12.23;4.87;;;;;2.90;95905.00;;;;8324858;28;20283;-76
2022/01/06 05:41:10;;;;;;;14.23;5.33;;;;;3.00;95909.00;;;;8325299;28;20336;-76
2022/01/06 05:45:15;;;;;;;10.67;3.97;;;;;3.00;95910.00;;;;8319230;28;20275;-76
2022/01/06 05:49:18;;;;;;;12.00;5.33;;;;;3.00;95920.00;;;;8312354;28;20307;-75
2022/01/06 05:53:23;;;;;;;7.03;4.10;;;;;3.00;95929.00;;;;8334155;28;20308;-76
2022/01/06 05:57:26;;;;;;;11.57;5.03;;;;;3.10;95929.00;;;;8320971;28;20307;-75
2022/01/06 06:01:30;;;;;;;10.70;4.90;;;;;3.10;95932.00;;;;8324252;28;20736;-75
2022/01/06 06:05:34;;;;;;;10.23;4.93;;;;;3.20;95939.00;;;;8316375;28;20244;-75
2022/01/06 06:09:38;;;;;;;11.17;4.80;;;;;3.20;95948.00;;;;8323358;28;20316;-80
2022/01/06 06:13:41;;;;;;;9.77;4.73;;;;;3.20;95956.00;;;;8327685;28;20323;-79
2022/01/06 06:17:45;;;;;;;12.13;5.03;;;;;3.20;95965.00;;;;8328041;28;20320;-78
2022/01/06 06:21:48;;;;;;;12.27;5.13;;;;;3.20;95967.00;;;;8314358;28;20649;-77
2022/01/06 06:25:52;;;;;;;12.10;4.60;;;;;3.30;95965.00;;;;8327662;28;20289;-76
2022/01/06 06:29:56;;;;;;;9.97;4.77;;;;;3.30;95976.00;;;;8323265;28;20327;-78
2022/01/06 06:33:59;;;;;;;8.20;3.60;;;;;3.40;95982.00;;;;8317784;28;20315;-76
2022/01/06 06:38:02;;;;;;;10.77;4.40;;;;;3.40;95988.00;;;;8327332;28;20240;-74
2022/01/06 06:42:07;;;;;;;9.87;3.53;;;;;3.40;95986.00;;;;8322933;28;20259;-74
2022/01/06 06:46:11;;;;;;;12.20;4.10;;;;;3.40;95992.00;;;;8314249;28;20311;-74
2022/01/06 06:50:16;;;;;;;12.40;4.00;;;;;3.40;96006.00;;;;8322010;28;21068;-73
2022/01/06 06:54:19;;;;;;;9.57;4.13;;;;;3.40;96001.00;;;;8328180;28;20626;-76
2022/01/06 06:58:23;;;;;;;5.73;3.30;;;;;3.40;96011.00;;;;8320484;28;20260;-72
2022/01/06 07:02:26;;;;;;;11.37;4.33;;;;;3.50;96020.00;;;;8323120;28;20263;-72
2022/01/06 07:06:30;;;;;;;9.70;4.20;;;;;3.50;96026.00;;;;8318384;28;20229;-73
2022/01/06 07:10:33;;;;;;;10.30;4.03;;;;;3.50;96029.00;;;;8329958;28;20532;-74
2022/01/06 07:14:38;;;;;;;7.20;4.40;;;;;3.50;96041.00;;;;8326890;28;20252;-73
2022/01/06 07:18:41;;;;;;;6.80;3.77;;;;;3.50;96048.00;;;;8329542;28;20922;-73
2022/01/06 07:22:45;;;;;;;10.77;4.13;;;;;3.50;96057.00;;;;8317029;28;20300;-73
2022/01/06 07:26:49;;;;;;;7.27;3.97;;;;;3.50;96061.00;;;;8328759;28;20504;-72
2022/01/06 07:30:53;;;;;;;8.50;3.93;;;;;3.50;96062.00;;;;8323563;28;20386;-72
2022/01/06 07:34:56;;;;;;;8.37;3.77;;;;;3.50;96062.00;;;;8325650;28;20311;-72
2022/01/06 07:39:00;;;;;;;9.67;3.50;;;;;3.50;96068.00;;;;8310624;28;20232;-71
2022/01/06 07:43:03;;;;;;;10.93;3.97;;;;;3.50;96071.00;;;;8329760;28;20260;-72
2022/01/06 07:47:09;;;;;;;9.87;4.20;;;;;3.50;96064.00;;;;8329112;28;20701;-72
2022/01/06 07:51:12;;;;;;;8.47;3.83;;;;;3.50;96073.00;;;;8323370;28;20641;-74
2022/01/06 07:55:15;;;;;;;9.23;3.50;;;;;3.60;96084.00;;;;8315963;28;20836;-75
2022/01/06 07:59:18;;;;;;;8.90;3.60;;;;;3.60;96076.00;;;;8318842;28;20808;-74
2022/01/06 08:03:22;;;;;;;9.97;3.53;;;;;3.80;96082.00;;;;8316346;28;21209;-74
2022/01/06 08:07:26;;;;;;;8.93;4.33;;;;;3.70;96079.00;;;;8327241;28;20224;-79
2022/01/06 08:11:29;;;;;;;9.73;3.83;;;;;3.80;96096.00;;;;8324650;28;20737;-77
2022/01/06 08:15:32;;;;;;;8.67;3.63;;;;;4.00;96111.00;;;;8312965;28;20706;-72
2022/01/06 08:19:37;;;;;;;11.10;4.50;;;;;4.10;96103.00;;;;8309498;28;20856;-72
2022/01/06 08:23:40;;;;;;;5.73;3.50;;;;;4.20;96108.00;;;;8317803;28;20315;-72
2022/01/06 08:27:43;;;;;;;12.43;4.67;;;;;4.20;96106.00;;;;8316590;28;20308;-72
2022/01/06 08:31:46;;;;;;;7.37;4.20;;;;;4.20;96111.00;;;;8317239;28;20228;-71
2022/01/06 08:35:51;;;;;;;14.20;4.67;;;;;4.20;96107.00;;;;8328386;28;20235;-72
2022/01/06 08:39:54;;;;;;;12.30;4.10;;;;;4.10;96122.00;;;;8326486;28;20676;-71
2022/01/06 08:43:57;;;;;;;17.47;4.77;;;;;4.10;96129.00;;;;8319234;28;20320;-70
2022/01/06 08:48:01;;;;;;;11.30;4.40;;;;;4.10;96122.00;;;;8304651;28;20259;-70
2022/01/06 08:52:07;;;;;;;16.00;4.50;;;;;4.20;96127.00;;;;8310813;28;20312;-71
2022/01/06 08:56:10;;;;;;;14.00;4.07;;;;;4.20;96129.00;;;;8311354;28;20253;-71
2022/01/06 09:00:16;;;;;;;10.40;3.93;;;;;4.30;96131.00;;;;8307696;28;20733;-71
2022/01/06 09:04:21;;;;;;;18.77;4.57;;;;;4.30;96146.00;;;;8312948;28;20336;-72
2022/01/06 09:08:26;;;;;;;13.87;4.40;;;;;4.30;96139.00;;;;8309865;28;20324;-72
2022/01/06 09:12:29;;;;;;;15.83;4.50;;;;;4.40;96148.00;;;;8314323;28;20312;-72
2022/01/06 09:16:32;;;;;;;15.20;4.73;;;;;4.60;96159.00;;;;8312298;28;23605;-72
2022/01/06 09:20:35;;;;;;;8.60;4.10;;;;;4.60;96170.00;;;;8309563;28;20221;-73
2022/01/06 09:24:40;;;;;;;14.17;4.13;;;;;4.40;96166.00;;;;8313918;28;20261;-72
2022/01/06 09:28:43;;;;;;;9.80;3.77;;;;;4.30;96184.00;;;;8310593;28;20340;-72
2022/01/06 09:32:47;;;;;;;27.60;17.03;;;;;4.30;96188.00;;;;8309502;28;20689;-71
2022/01/06 09:36:50;;;;;;;14.10;5.63;;;;;4.30;96188.00;;;;8311982;28;20232;-71
2022/01/06 09:40:55;;;;;;;21.87;7.77;;;;;4.40;96196.00;;;;8316988;28;20254;-71
2022/01/06 09:44:59;;;;;;;11.83;4.40;;;;;4.40;96189.00;;;;8298979;28;20280;-71
2022/01/06 09:49:03;;;;;;;10.57;4.67;;;;;4.60;96193.00;;;;8305466;28;20230;-72
2022/01/06 09:53:11;;;;;;;17.23;6.03;;;;;5.00;96201.00;;;;8294944;28;20221;-70
2022/01/06 09:57:16;;;;;;;12.60;5.93;;;;;5.30;96201.00;;;;8313664;28;20224;-70
2022/01/06 10:01:19;;;;;;;15.97;3.13;;;;;5.40;96201.00;;;;8313784;28;20949;-70
2022/01/06 10:05:24;;;;;;;16.00;3.87;;;;;5.30;96203.00;;;;8316553;28;20236;-69
2022/01/06 10:09:28;;;;;;;14.70;7.07;;;;;5.20;96200.00;;;;8318203;28;20239;-70
2022/01/06 10:13:32;;;;;;;10.40;4.97;;;;;5.30;96209.00;;;;8316282;28;20731;-69
2022/01/06 10:17:36;;;;;;;10.50;3.83;;;;;5.50;96219.00;;;;8326401;28;20236;-69
2022/01/06 10:21:41;;;;;;;13.10;4.07;;;;;5.70;96210.00;;;;8323136;28;20231;-69
2022/01/06 10:25:49;;;;;;;14.77;5.77;;;;;5.70;96219.00;;;;8309086;28;20328;-70
2022/01/06 10:29:58;;;;;;;14.30;6.10;;;;;5.60;96222.00;;;;8313577;28;20559;-69
2022/01/06 10:34:07;;;;;;;17.80;6.30;;;;;5.60;96205.00;;;;8311201;28;20274;-69
2022/01/06 10:38:11;;;;;;;12.13;5.23;;;;;5.70;96219.00;;;;8315123;28;20340;-70
2022/01/06 10:42:14;;;;;;;13.43;4.83;;;;;5.80;96227.00;;;;8316766;28;21352;-69
2022/01/06 10:46:33;;;;;;;18.30;6.43;;;;;5.80;96233.00;;;;8314039;28;20264;-70
2022/01/06 10:50:38;;;;;;;18.23;4.80;;;;;5.60;96218.00;;;;8313795;28;20308;-70
2022/01/06 10:54:42;;;;;;;11.50;4.00;;;;;5.50;96219.00;;;;8308915;28;20252;-70
2022/01/06 10:58:46;;;;;;;17.37;4.87;;;;;5.40;96229.00;;;;8313962;28;20275;-70
2022/01/06 11:03:05;;;;;;;12.70;4.80;;;;;5.40;96231.00;;;;8311000;28;20245;-70
2022/01/06 11:07:09;;;;;;;16.30;4.60;;;;;5.50;96243.00;;;;8318073;28;20236;-69
2022/01/06 11:11:29;;;;;;;12.33;3.87;;;;;5.70;96236.00;;;;8316180;28;20232;-68
2022/01/06 11:15:34;;;;;;;12.67;4.60;;;;;5.70;96240.00;;;;8317842;28;20275;-70
2022/01/06 11:19:38;;;;;;;9.87;3.33;;;;;5.70;96248.00;;;;8314798;28;20327;-69
2022/01/06 11:23:43;;;;;;;9.20;3.40;;;;;5.80;96248.00;;;;8305851;28;20225;-70
2022/01/06 11:28:01;;;;;;;14.43;3.80;;;;;5.70;96255.00;;;;8319206;28;20767;-68
2022/01/06 11:32:17;;;;;;;12.43;3.77;;;;;5.80;96252.00;;;;8309837;28;20316;-69
2022/01/06 11:36:29;;;;;;;8.10;3.37;;;;;5.80;96245.00;;;;8311122;28;20296;-70
2022/01/06 11:40:34;;;;;;;17.07;4.63;;;;;5.90;96258.00;;;;8316228;28;20321;-70
2022/01/06 11:44:49;;;;;;;8.93;3.33;;;;;5.80;96266.00;;;;8327009;28;20260;-69
2022/01/06 11:48:54;;;;;;;15.50;3.67;;;;;5.70;96269.00;;;;8316871;28;20736;-69
2022/01/06 11:53:02;;;;;;;8.47;3.40;;;;;5.90;96268.00;;;;8317373;28;20352;-70
2022/01/06 11:57:07;;;;;;;12.47;2.87;;;;;6.10;96271.00;;;;8316513;28;20244;-70
2022/01/06 12:01:15;;;;;;;7.50;3.00;;;;;6.10;96275.00;;;;8314570;28;20236;-70
2022/01/06 12:05:19;;;;;;;6.30;2.43;;;;;6.20;96279.00;;;;8319142;28;20229;-70
2022/01/06 12:09:24;;;;;;;8.00;3.20;;;;;6.10;96281.00;;;;8315182;28;20287;-70
2022/01/06 12:13:28;;;;;;;8.97;3.10;;;;;6.20;96285.00;;;;8313907;28;20228;-70
2022/01/06 12:17:31;;;;;;;7.80;2.87;;;;;6.10;96276.00;;;;8315433;28;21010;-69
2022/01/06 12:21:34;;;;;;;6.43;2.40;;;;;6.00;96280.00;;;;8318458;28;20326;-70
2022/01/06 12:25:39;;;;;;;8.67;2.73;;;;;6.00;96275.00;;;;8318052;28;20295;-69
2022/01/06 12:29:42;;;;;;;8.40;2.73;;;;;6.10;96272.00;;;;8314648;28;20237;-70
2022/01/06 12:33:48;;;;;;;5.67;2.87;;;;;6.10;96267.00;;;;8317178;28;20308;-70
2022/01/06 12:37:58;;;;;;;9.97;2.73;;;;;6.00;96281.00;;;;8317007;28;20264;-70
2022/01/06 12:42:06;;;;;;;5.87;2.27;;;;;5.80;96281.00;;;;8321398;28;20256;-70
2022/01/06 12:46:12;;;;;;;7.53;2.50;;;;;5.60;96276.00;;;;8324601;28;20340;-70
2022/01/06 12:50:16;;;;;;;6.50;2.70;;;;;5.70;96285.00;;;;8325848;28;20237;-70
2022/01/06 12:54:21;;;;;;;12.80;3.13;;;;;5.80;96297.00;;;;8322118;28;20619;-71
2022/01/06 12:58:28;;;;;;;9.87;3.40;;;;;5.50;96302.00;;;;8324236;28;20229;-71
2022/01/06 13:02:31;;;;;;;5.53;2.90;;;;;5.20;96305.00;;;;8323522;28;20224;-71
2022/01/06 13:06:36;;;;;;;11.50;3.70;;;;;5.10;96312.00;;;;8319805;28;20257;-70
2022/01/06 13:10:39;;;;;;;5.23;2.97;;;;;5.00;96307.00;;;;8326344;28;20252;-70
2022/01/06 13:14:47;;;;;;;10.63;3.47;;;;;4.80;96308.00;;;;8327253;28;20674;-71
2022/01/06 13:18:58;;;;;;;5.77;3.00;;;;;4.70;96305.00;;;;8308189;28;20755;-71
2022/01/06 13:23:41;;;;;;;7.60;3.20;;;;;4.50;96309.00;;;;8291197;28;20273;-71
2022/01/06 13:27:37;;;;;;;13.70;3.13;;;;;4.40;96324.00;;;;8297482;28;20225;-68
2022/01/06 13:31:42;;;;;;;6.57;3.40;;;;;4.30;96319.00;;;;8303643;28;20557;-70
2022/01/06 13:35:49;;;;;;;10.43;3.30;;;;;4.20;96331.00;;;;8294146;28;20273;-70
2022/01/06 13:39:59;;;;;;;8.53;3.23;;;;;4.30;96338.00;;;;8301782;28;20316;-69
2022/01/06 13:44:06;;;;;;;7.47;3.20;;;;;4.40;96338.00;;;;8294924;28;20226;-70
2022/01/06 13:48:35;;;;;;;10.50;3.30;;;;;4.40;96330.00;;;;8299931;28;20229;-71
2022/01/06 13:52:39;;;;;;;7.60;3.00;;;;;4.50;96350.00;;;;8300130;28;20239;-70
2022/01/06 13:56:42;;;;;;;8.50;3.20;;;;;4.50;96343.00;;;;8313022;28;20239;-70
2022/01/06 14:00:45;;;;;;;7.03;2.80;;;;;4.70;96342.00;;;;8311132;28;20256;-72
2022/01/06 14:04:50;;;;;;;6.63;2.73;;;;;4.60;96346.00;;;;8298742;28;20276;-70
2022/01/06 14:08:53;;;;;;;5.80;2.57;;;;;4.60;96347.00;;;;8315916;28;20280;-71
2022/01/06 14:12:56;;;;;;;6.57;2.60;;;;;4.70;96367.00;;;;8313449;28;20315;-71
2022/01/06 14:17:00;;;;;;;7.07;2.53;;;;;4.50;96366.00;;;;8309026;28;20228;-70
2022/01/06 14:21:05;;;;;;;6.77;2.60;;;;;4.40;96366.00;;;;8312423;28;20676;-71
2022/01/06 14:25:09;;;;;;;7.27;2.03;;;;;4.20;96368.00;;;;8306193;28;20244;-73
2022/01/06 14:29:12;;;;;;;5.23;2.17;;;;;4.10;96373.00;;;;8304558;28;20241;-70
2022/01/06 14:33:15;;;;;;;7.23;2.97;;;;;4.00;96381.00;;;;8312577;28;20252;-70
2022/01/06 14:37:20;;;;;;;4.43;2.47;;;;;3.90;96385.00;;;;8307861;28;20263;-73
2022/01/06 14:41:23;;;;;;;5.97;2.77;;;;;3.80;96389.00;;;;8315157;28;20639;-72
2022/01/06 14:45:27;;;;;;;5.23;2.70;;;;;3.70;96392.00;;;;8318712;28;20224;-71
2022/01/06 14:49:30;;;;;;;5.37;2.50;;;;;3.60;96387.00;;;;8327852;28;20325;-70
2022/01/06 14:53:34;;;;;;;6.03;2.73;;;;;3.50;96398.00;;;;8299645;28;20642;-70
2022/01/06 14:57:38;;;;;;;7.87;2.30;;;;;3.30;96402.00;;;;8319738;28;20259;-70
2022/01/06 15:01:41;;;;;;;5.27;2.47;;;;;3.20;96401.00;;;;8330008;28;20264;-72
2022/01/06 15:05:44;;;;;;;7.23;2.80;;;;;3.00;96405.00;;;;8331321;28;20708;-70
2022/01/06 15:09:49;;;;;;;5.50;2.50;;;;;2.80;96405.00;;;;8298280;28;20320;-72
2022/01/06 15:13:52;;;;;;;4.43;3.13;;;;;2.60;96415.00;;;;8326789;28;20252;-72
2022/01/06 15:17:55;;;;;;;7.33;3.57;;;;;2.40;96417.00;;;;8315014;28;20986;-71
2022/01/06 15:21:58;;;;;;;7.83;4.10;;;;;2.20;96422.00;;;;8298845;28;20302;-71
2022/01/06 15:26:04;;;;;;;12.63;5.37;;;;;2.10;96427.00;;;;8318380;28;20311;-72
2022/01/06 15:30:08;;;;;;;11.60;4.53;;;;;1.90;96436.00;;;;8323512;28;20268;-71
2022/01/06 15:34:11;;;;;;;9.83;4.77;;;;;1.80;96444.00;;;;8310623;28;20221;-71
2022/01/06 15:38:15;;;;;;;10.80;4.97;;;;;1.60;96446.00;;;;8334663;28;20220;-70
2022/01/06 15:42:20;;;;;;;14.63;4.30;;;;;1.50;96444.00;;;;8345187;28;20319;-70
2022/01/06 15:46:23;;;;;;;11.57;3.90;;;;;1.40;96457.00;;;;8327085;28;20315;-70
2022/01/06 15:50:26;;;;;;;9.33;5.43;;;;;1.40;96453.00;;;;8318077;28;20236;-71
2022/01/06 15:54:30;;;;;;;18.63;5.83;;;;;1.30;96467.00;;;;8332662;28;20256;-71
2022/01/06 15:58:34;;;;;;;13.40;5.73;;;;;1.20;96469.00;;;;8339249;28;20253;-73
2022/01/06 16:07:01;;;;;;;14.33;5.13;;;;;1.10;96473.00;;;;8312585;28;20290;-72
2022/01/06 16:11:04;;;;;;;17.23;7.17;;;;;1.10;96487.00;;;;8312558;28;20229;-72
2022/01/06 16:15:10;;;;;;;25.03;11.13;;;;;1.20;96490.00;;;;8325203;28;20317;-72
2022/01/06 16:19:13;;;;;;;38.60;14.37;;;;;1.20;96498.00;;;;8322328;28;20309;-70
2022/01/06 16:23:17;;;;;;;21.33;9.03;;;;;1.30;96501.00;;;;8328557;28;20245;-73
2022/01/06 16:27:20;;;;;;;13.60;5.60;;;;;1.30;96504.00;;;;8307788;28;20296;-72
2022/01/06 16:31:43;;;;;;;12.70;5.60;;;;;1.40;96511.00;;;;8305136;28;20233;-71
2022/01/06 16:35:47;;;;;;;11.17;5.70;;;;;1.40;96513.00;;;;8302533;28;20258;-72
2022/01/06 16:39:51;;;;;;;11.23;4.93;;;;;1.40;96513.00;;;;8303353;28;20247;-74
2022/01/06 16:43:54;;;;;;;10.23;5.33;;;;;1.30;96518.00;;;;8305004;28;20719;-76
2022/01/06 16:47:59;;;;;;;10.37;5.17;;;;;1.30;96524.00;;;;8308925;28;20742;-73
2022/01/06 16:52:03;;;;;;;9.17;4.67;;;;;1.20;96515.00;;;;8311346;28;20235;-73
2022/01/06 16:56:06;;;;;;;10.10;4.03;;;;;1.10;96509.00;;;;8311395;28;20687;-72
2022/01/06 17:00:11;;;;;;;14.63;5.27;;;;;1.00;96509.00;;;;8310903;28;20232;-75
2022/01/06 17:04:16;;;;;;;15.03;6.47;;;;;1.00;96514.00;;;;8309620;28;20354;-73
2022/01/06 17:08:21;;;;;;;10.13;5.67;;;;;0.80;96514.00;;;;8306271;28;20310;-73
2022/01/06 17:12:26;;;;;;;6.13;4.10;;;;;0.80;96514.00;;;;8311556;28;20230;-71
2022/01/06 17:16:31;;;;;;;16.60;5.20;;;;;0.70;96517.00;;;;8304784;28;20838;-72
2022/01/06 17:20:36;;;;;;;13.60;5.60;;;;;0.60;96527.00;;;;8314681;28;20237;-74
2022/01/06 17:24:40;;;;;;;7.80;4.87;;;;;0.60;96521.00;;;;8313484;28;20322;-72
2022/01/06 17:28:43;;;;;;;10.30;5.77;;;;;0.50;96523.00;;;;8307279;28;20235;-70
2022/01/06 17:32:46;;;;;;;10.47;5.43;;;;;0.50;96530.00;;;;8312100;28;20231;-71
2022/01/06 17:36:51;;;;;;;8.83;5.60;;;;;0.50;96527.00;;;;8300504;28;20704;-72
2022/01/06 17:40:54;;;;;;;19.00;6.17;;;;;0.40;96520.00;;;;8309232;28;20273;-74
2022/01/06 17:44:58;;;;;;;12.67;6.23;;;;;0.30;96520.00;;;;8278645;28;20806;-71
2022/01/06 17:49:01;;;;;;;18.07;6.40;;;;;0.30;96526.00;;;;8311796;28;20230;-71
2022/01/06 17:53:06;;;;;;;15.23;6.30;;;;;0.20;96543.00;;;;8309905;28;20240;-71
2022/01/06 17:57:11;;;;;;;17.53;6.67;;;;;0.20;96530.00;;;;8311559;28;20630;-72
2022/01/06 18:01:15;;;;;;;13.13;6.33;;;;;0.20;96541.00;;;;8313200;28;20226;-70
2022/01/06 18:05:22;;;;;;;19.77;6.97;;;;;0.20;96530.00;;;;8310465;28;20226;-70
2022/01/06 18:13:53;;;;;;;17.97;7.27;;;;;0.10;96539.00;;;;8299614;28;20289;-70
2022/01/06 18:17:57;;;;;;;18.03;7.67;;;;;0.10;96544.00;;;;8303743;28;20683;-71
2022/01/06 18:22:01;;;;;;;23.40;10.43;;;;;0.00;96544.00;;;;8311026;28;21667;-69
2022/01/06 18:26:06;;;;;;;20.27;8.50;;;;;0.00;96545.00;;;;8309962;28;20607;-69
2022/01/06 18:30:11;;;;;;;27.47;12.17;;;;;-0.10;96550.00;;;;8311405;28;20309;-69
2022/01/06 18:34:14;;;;;;;32.70;13.30;;;;;-0.10;96534.00;;;;8303822;28;20230;-69
2022/01/06 18:38:18;;;;;;;26.50;11.53;;;;;-0.10;96547.00;;;;8311090;28;20229;-70
2022/01/06 18:42:22;;;;;;;24.97;9.07;;;;;-0.10;96550.00;;;;8308874;28;20336;-69
2022/01/06 18:46:25;;;;;;;32.23;13.40;;;;;-0.10;96546.00;;;;8310624;28;20765;-68
2022/01/06 18:50:29;;;;;;;32.23;12.73;;;;;0.00;96544.00;;;;8313223;28;20282;-68
2022/01/06 18:54:33;;;;;;;28.73;12.47;;;;;0.00;96552.00;;;;8305322;28;20338;-68
2022/01/06 18:58:38;;;;;;;22.57;9.70;;;;;-0.10;96553.00;;;;8310380;28;20288;-67
2022/01/06 19:02:41;;;;;;;25.23;10.57;;;;;-0.10;96554.00;;;;8305878;28;20300;-68
2022/01/06 19:06:47;;;;;;;26.03;10.87;;;;;-0.20;96563.00;;;;8307883;28;20274;-69
2022/01/06 19:10:51;;;;;;;22.47;10.73;;;;;-0.20;96554.00;;;;8309507;28;20226;-68
2022/01/06 19:14:56;;;;;;;20.73;9.63;;;;;-0.30;96551.00;;;;8309071;28;20292;-69
2022/01/06 19:19:01;;;;;;;22.07;10.50;;;;;-0.40;96556.00;;;;8310453;28;20327;-69
2022/01/06 19:23:04;;;;;;;22.37;11.00;;;;;-0.40;96559.00;;;;8307406;28;20249;-68
2022/01/06 19:27:08;;;;;;;20.70;10.10;;;;;-0.40;96561.00;;;;8310407;28;20313;-67
2022/01/06 19:31:13;;;;;;;28.47;12.23;;;;;-0.30;96563.00;;;;8314017;28;20319;-67
2022/01/06 19:35:19;;;;;;;36.80;15.40;;;;;-0.20;96569.00;;;;8309255;28;20297;-69
2022/01/06 19:39:22;;;;;;;35.70;13.80;;;;;0.00;96580.00;;;;8309256;28;20855;-66
2022/01/06 19:43:26;;;;;;;37.13;15.33;;;;;0.10;96577.00;;;;8312816;28;20317;-67
2022/01/06 19:47:31;;;;;;;34.43;15.00;;;;;0.20;96583.00;;;;8318422;28;20249;-68
2022/01/06 19:51:34;;;;;;;28.47;14.70;;;;;0.20;96582.00;;;;8312297;28;20261;-67
2022/01/06 19:55:40;;;;;;;38.33;15.63;;;;;0.10;96582.00;;;;8310752;28;20275;-69
2022/01/06 19:59:45;;;;;;;28.17;12.27;;;;;0.00;96580.00;;;;8315575;28;20225;-67
2022/01/06 20:03:49;;;;;;;32.40;16.03;;;;;-0.10;96573.00;;;;8317059;28;20226;-66
2022/01/06 20:07:53;;;;;;;22.17;9.20;;;;;-0.20;96565.00;;;;8315109;28;20239;-69
2022/01/06 20:11:56;;;;;;;17.33;7.90;;;;;-0.30;96567.00;;;;8314839;28;20592;-67
2022/01/06 20:16:01;;;;;;;23.63;10.63;;;;;-0.40;96570.00;;;;8312865;28;21958;-67
2022/01/06 20:20:14;;;;;;;27.93;11.23;;;;;-0.40;96566.00;;;;8312858;28;20692;-67
2022/01/06 20:24:17;;;;;;;29.60;13.77;;;;;-0.50;96570.00;;;;8311435;28;20240;-68
2022/01/06 20:28:24;;;;;;;20.93;9.73;;;;;-0.50;96577.00;;;;8315575;28;20984;-68
2022/01/06 20:32:27;;;;;;;12.30;7.20;;;;;-0.50;96575.00;;;;8310523;28;20263;-68
2022/01/06 20:36:32;;;;;;;21.53;7.43;;;;;-0.50;96583.00;;;;8311954;28;20629;-68
2022/01/06 20:40:35;;;;;;;18.20;9.67;;;;;-0.50;96578.00;;;;8308042;28;20317;-68
2022/01/06 20:44:38;;;;;;;26.03;12.83;;;;;-0.50;96590.00;;;;8315679;28;20588;-67